CMA CGM Musca — 2CAC8 — position and weather

sailwx.info

Track history (hours):
 
Tides and Currents Weather Stations Pressure Air Temp Water Temp Dewpoint Dewpoint Depression Visibility Wind Speed Wind Dir Waves Ship Positions

CMA CGM Musca

Last reported at 2015-Mar-29 04:20 UTC. Time now 2015-Apr-01 01:10 UTC.
Position N 36°47' E 123°23'.

Length 347 m; draft 13.7 m.

Type: Ship (hazmat cat A). MMSI: 235070914.

Date/timePositionNaut miles runAvg speedWind from/ knotsBaromVisibWave heightAir tempDewpointWater temp
2015-Mar-29 04:20N 36°47' E 123°23'1013.5
2015-Mar-29 03:33N 36°56' E 123°16'1312.6
2015-Mar-29 02:33N 37°07' E 123°08'1413.6
2015-Mar-29 01:33N 37°20' E 123°02'1714.3
2015-Mar-29 00:23N 37°33' E 122°51'1514.3
2015-Mar-28 23:20N 37°47' E 122°43'5514.5
2015-Mar-28 19:33N 38°35' E 122°10'1414.5
2015-Mar-28 18:33N 38°49' E 122°03'7 0.3
2015-Mar-27 21:07N 38°52' E 121°55'1015.5
2015-Mar-27 20:29N 38°43' E 121°48'1814.9
2015-Mar-27 19:17N 38°31' E 121°32'15617.9
2015-Mar-27 10:33N 38°51' E 118°14'1212.0
2015-Mar-27 09:33N 38°56' E 118°00'1110.5
2015-Mar-27 08:33N 38°59' E 117°47'0 0.3
2015-Mar-27 07:33N 38°59' E 117°47'0 0.0
2015-Mar-27 06:33N 38°59' E 117°47'0 0.0
2015-Mar-27 05:32N 38°59' E 117°47'0 0.0
2015-Mar-27 04:32N 38°59' E 117°47'0 0.0
2015-Mar-27 03:31N 38°59' E 117°47'0 0.0
2015-Mar-27 02:19N 38°59' E 117°47'0 0.0
2015-Mar-27 01:24N 38°59' E 117°47'0 0.0
2015-Mar-27 00:30N 38°59' E 117°47'0 0.0
2015-Mar-26 23:30N 38°59' E 117°47'0 0.0
2015-Mar-26 22:29N 38°59' E 117°47'0 0.0
2015-Mar-26 21:29N 38°59' E 117°47'0 0.0
2015-Mar-26 20:28N 38°59' E 117°47'0 0.0
2015-Mar-26 19:28N 38°59' E 117°47'0 0.0
2015-Mar-26 18:21N 38°59' E 117°47'0 0.0
2015-Mar-26 17:33N 38°59' E 117°47'0 0.0
2015-Mar-26 16:33N 38°59' E 117°47'0 0.0
2015-Mar-26 15:32N 38°59' E 117°47'0 0.0
2015-Mar-26 14:32N 38°59' E 117°47'0 0.0
2015-Mar-26 13:31N 38°59' E 117°47'0 0.0
2015-Mar-26 12:31N 38°59' E 117°47'0 0.0
2015-Mar-26 11:30N 38°59' E 117°47'0 0.0
2015-Mar-26 10:30N 38°59' E 117°47'0 0.0
2015-Mar-26 09:30N 38°59' E 117°47'0 0.0
2015-Mar-26 08:29N 38°59' E 117°47'0 0.0
2015-Mar-26 07:29N 38°59' E 117°47'0 0.0
2015-Mar-26 04:15N 38°59' E 117°47'0 0.0
2015-Mar-26 03:21N 38°59' E 117°47'0 0.0
2015-Mar-26 02:32N 38°59' E 117°47'0 0.0
2015-Mar-26 01:32N 38°59' E 117°47'0 0.0
2015-Mar-26 00:26N 38°59' E 117°47'0 0.0
2015-Mar-25 23:31N 38°59' E 117°47'0 0.0
2015-Mar-25 22:31N 38°59' E 117°47'0 0.0
2015-Mar-25 21:12N 38°59' E 117°47'0 0.0
2015-Mar-25 20:30N 38°59' E 117°47'0 0.0
2015-Mar-25 19:29N 38°59' E 117°47'4 3.9
2015-Mar-25 18:33N 38°58' E 117°52'1212.1
2015-Mar-25 17:33N 38°56' E 118°07'6 6.0
2015-Mar-25 16:33N 38°52' E 118°14'15313.9
2015-Mar-25 05:32N 38°23' E 121°25'1514.4
2015-Mar-25 04:28N 38°14' E 121°42'1414.3
2015-Mar-25 03:30N 38°08' E 121°57'3414.3
2015-Mar-25 01:08N 37°49' E 122°33'1114.1
2015-Mar-25 00:21N 37°42' E 122°44'1214.8
2015-Mar-24 23:33N 37°33' E 122°53'1514.8
2015-Mar-24 22:32N 37°20' E 123°04'1514.6
2015-Mar-24 21:31N 37°07' E 123°11'1414.7
2015-Mar-24 20:33N 36°54' E 123°19'1414.2
2015-Mar-24 19:33N 36°43' E 123°30'1414.3
2015-Mar-24 18:33N 36°30' E 123°37'1414.4
2015-Mar-24 17:33N 36°17' E 123°46'1814.0
2015-Mar-24 16:15N 36°01' E 123°57'1014.1
2015-Mar-24 15:32N 35°51' E 123°60'3114.4
2015-Mar-24 13:24N 35°21' E 124°05'  
2015-Mar-22 00:34N 22°54' E 119°53'1414.4
2015-Mar-21 23:33N 22°40' E 119°53'1313.0
2015-Mar-21 22:33N 22°27' E 119°53'1211.9
2015-Mar-21 21:33N 22°17' E 119°46'  
Track history (hours):
 
Tides and Currents Weather Stations Pressure Air Temp Water Temp Dewpoint Dewpoint Depression Visibility Wind Speed Wind Dir Waves Ship Positions

CMA CGM Musca

Last reported at 2015-Mar-29 04:20 UTC. Time now 2015-Apr-01 01:10 UTC.
Position N 36°47' E 123°23'.

Length 347 m; draft 13.7 m.

Type: Ship (hazmat cat A). MMSI: 235070914.

Date/timePositionNaut miles runAvg speedWind from/ knotsBaromVisibWave heightAir tempDewpointWater temp
2015-Mar-29 04:20N 36°47' E 123°23'1013.5
2015-Mar-29 03:33N 36°56' E 123°16'1312.6
2015-Mar-29 02:33N 37°07' E 123°08'1413.6
2015-Mar-29 01:33N 37°20' E 123°02'1714.3
2015-Mar-29 00:23N 37°33' E 122°51'1514.3
2015-Mar-28 23:20N 37°47' E 122°43'5514.5
2015-Mar-28 19:33N 38°35' E 122°10'1414.5
2015-Mar-28 18:33N 38°49' E 122°03'7 0.3
2015-Mar-27 21:07N 38°52' E 121°55'1015.5
2015-Mar-27 20:29N 38°43' E 121°48'1814.9
2015-Mar-27 19:17N 38°31' E 121°32'15617.9
2015-Mar-27 10:33N 38°51' E 118°14'1212.0
2015-Mar-27 09:33N 38°56' E 118°00'1110.5
2015-Mar-27 08:33N 38°59' E 117°47'0 0.3
2015-Mar-27 07:33N 38°59' E 117°47'0 0.0
2015-Mar-27 06:33N 38°59' E 117°47'0 0.0
2015-Mar-27 05:32N 38°59' E 117°47'0 0.0
2015-Mar-27 04:32N 38°59' E 117°47'0 0.0
2015-Mar-27 03:31N 38°59' E 117°47'0 0.0
2015-Mar-27 02:19N 38°59' E 117°47'0 0.0
2015-Mar-27 01:24N 38°59' E 117°47'0 0.0
2015-Mar-27 00:30N 38°59' E 117°47'0 0.0
2015-Mar-26 23:30N 38°59' E 117°47'0 0.0
2015-Mar-26 22:29N 38°59' E 117°47'0 0.0
2015-Mar-26 21:29N 38°59' E 117°47'0 0.0
2015-Mar-26 20:28N 38°59' E 117°47'0 0.0
2015-Mar-26 19:28N 38°59' E 117°47'0 0.0
2015-Mar-26 18:21N 38°59' E 117°47'0 0.0
2015-Mar-26 17:33N 38°59' E 117°47'0 0.0
2015-Mar-26 16:33N 38°59' E 117°47'0 0.0
2015-Mar-26 15:32N 38°59' E 117°47'0 0.0
2015-Mar-26 14:32N 38°59' E 117°47'0 0.0
2015-Mar-26 13:31N 38°59' E 117°47'0 0.0
2015-Mar-26 12:31N 38°59' E 117°47'0 0.0
2015-Mar-26 11:30N 38°59' E 117°47'0 0.0
2015-Mar-26 10:30N 38°59' E 117°47'0 0.0
2015-Mar-26 09:30N 38°59' E 117°47'0 0.0
2015-Mar-26 08:29N 38°59' E 117°47'0 0.0
2015-Mar-26 07:29N 38°59' E 117°47'0 0.0
2015-Mar-26 04:15N 38°59' E 117°47'0 0.0
2015-Mar-26 03:21N 38°59' E 117°47'0 0.0
2015-Mar-26 02:32N 38°59' E 117°47'0 0.0
2015-Mar-26 01:32N 38°59' E 117°47'0 0.0
2015-Mar-26 00:26N 38°59' E 117°47'0 0.0
2015-Mar-25 23:31N 38°59' E 117°47'0 0.0
2015-Mar-25 22:31N 38°59' E 117°47'0 0.0
2015-Mar-25 21:12N 38°59' E 117°47'0 0.0
2015-Mar-25 20:30N 38°59' E 117°47'0 0.0
2015-Mar-25 19:29N 38°59' E 117°47'4 3.9
2015-Mar-25 18:33N 38°58' E 117°52'1212.1
2015-Mar-25 17:33N 38°56' E 118°07'6 6.0
2015-Mar-25 16:33N 38°52' E 118°14'15313.9
2015-Mar-25 05:32N 38°23' E 121°25'1514.4
2015-Mar-25 04:28N 38°14' E 121°42'1414.3
2015-Mar-25 03:30N 38°08' E 121°57'3414.3
2015-Mar-25 01:08N 37°49' E 122°33'1114.1
2015-Mar-25 00:21N 37°42' E 122°44'1214.8
2015-Mar-24 23:33N 37°33' E 122°53'1514.8
2015-Mar-24 22:32N 37°20' E 123°04'1514.6
2015-Mar-24 21:31N 37°07' E 123°11'1414.7
2015-Mar-24 20:33N 36°54' E 123°19'1414.2
2015-Mar-24 19:33N 36°43' E 123°30'1414.3
2015-Mar-24 18:33N 36°30' E 123°37'1414.4
2015-Mar-24 17:33N 36°17' E 123°46'1814.0
2015-Mar-24 16:15N 36°01' E 123°57'1014.1
2015-Mar-24 15:32N 35°51' E 123°60'3114.4
2015-Mar-24 13:24N 35°21' E 124°05'  
2015-Mar-22 00:34N 22°54' E 119°53'1414.4
2015-Mar-21 23:33N 22°40' E 119°53'1313.0
2015-Mar-21 22:33N 22°27' E 119°53'1211.9
2015-Mar-21 21:33N 22°17' E 119°46'  

Dump ship's entire track history